Main page
METAR-TAF:

METAR-TAF

Airports :

Nouakchott, Mauritania

Nouakchott–Oumtounsy International Airport

latitude: 18-18-36N, longitude: 015-58-11W, elevation: 3 m

Current weather observation

The report was made 24 minutes ago, at 16:00 UTC
Wind 17 kt from the Northwest
Temperature 29°C
Humidity 37%
Pressure 1011 hPa
Visibility: 6000 m

METAR: GQNO 251600Z 32017KT 6000 NSC 29/13 Q1011 NOSIG

Time: 16:24 (16:24 UTC)

Forecast

The report was made 5 hours and 24 minutes ago, at 11:00 UTC
Forecast valid from 25 at 12 UTC to 26 at 18 UTC
Wind 15 kt from the Northeast
Visibility: 4000 m
Becoming
from 25 at 14 UTC to 25 at 16 UTC
Wind 14 kt from the North/Northwest
Becoming
from 25 at 16 UTC to 25 at 19 UTC
Visibility: 7000 m
Becoming
from 26 at 08 UTC to 26 at 11 UTC
Wind 15 kt from the East/Northeast
Visibility: 4000 m
Blowing dust

TAF: GQNO 251100Z 2512/2618 05015KT 4000 NSC BECMG 2514/2516 33014KT BECMG 2516/2519 7000 NSW BECMG 2608/2611 06015KT 4000 BLDU

Weather observations and forecasts of more than 4000 airports (METAR and TAF reports).

The available stations are represented by yellow and red dots on the map.

Hover mouse over dot to see the name of the station.

Then click to see weather observations and forecasts.

To change the map : click on the green buttons with a black cross to zoom in, on the green button with a dash to zoom out, or on the green arrows for adjacent maps.


METAR-TAF: